sensor_id;sensor_type;location;lat;lon;timestamp;P1;durP1;ratioP1;P2;durP2;ratioP2
68074;SDS011;54864;52.002;5.468;2023-04-08T00:00:45;55.88;;;30.20;;
68074;SDS011;54864;52.002;5.468;2023-04-08T00:01:47;47.33;;;29.50;;
68074;SDS011;54864;52.002;5.468;2023-04-08T00:02:48;46.83;;;29.50;;
68074;SDS011;54864;52.002;5.468;2023-04-08T00:03:50;52.85;;;30.17;;
68074;SDS011;54864;52.002;5.468;2023-04-08T00:04:53;50.03;;;30.08;;
68074;SDS011;54864;52.002;5.468;2023-04-08T00:05:58;50.03;;;30.00;;
68074;SDS011;54864;52.002;5.468;2023-04-08T00:07:02;47.60;;;29.27;;
68074;SDS011;54864;52.002;5.468;2023-04-08T00:08:04;53.73;;;30.53;;
68074;SDS011;54864;52.002;5.468;2023-04-08T00:09:06;55.55;;;31.05;;
68074;SDS011;54864;52.002;5.468;2023-04-08T00:10:07;53.55;;;30.75;;
68074;SDS011;54864;52.002;5.468;2023-04-08T00:11:11;54.78;;;31.13;;
68074;SDS011;54864;52.002;5.468;2023-04-08T00:12:13;53.47;;;29.92;;
68074;SDS011;54864;52.002;5.468;2023-04-08T00:13:14;58.10;;;31.23;;
68074;SDS011;54864;52.002;5.468;2023-04-08T00:14:16;55.50;;;29.52;;
68074;SDS011;54864;52.002;5.468;2023-04-08T00:15:18;55.03;;;29.63;;
68074;SDS011;54864;52.002;5.468;2023-04-08T00:16:20;44.37;;;28.00;;
68074;SDS011;54864;52.002;5.468;2023-04-08T00:17:21;62.13;;;29.10;;
68074;SDS011;54864;52.002;5.468;2023-04-08T00:18:23;56.55;;;27.25;;
68074;SDS011;54864;52.002;5.468;2023-04-08T00:19:24;58.10;;;26.83;;
68074;SDS011;54864;52.002;5.468;2023-04-08T00:20:26;62.15;;;26.90;;
68074;SDS011;54864;52.002;5.468;2023-04-08T00:21:27;56.35;;;25.52;;
68074;SDS011;54864;52.002;5.468;2023-04-08T00:22:30;83.97;;;25.63;;
68074;SDS011;54864;52.002;5.468;2023-04-08T00:23:34;76.85;;;26.63;;
68074;SDS011;54864;52.002;5.468;2023-04-08T00:24:36;51.92;;;24.00;;
68074;SDS011;54864;52.002;5.468;2023-04-08T00:25:37;52.75;;;24.00;;
68074;SDS011;54864;52.002;5.468;2023-04-08T00:26:39;59.92;;;23.83;;
68074;SDS011;54864;52.002;5.468;2023-04-08T00:27:40;61.90;;;24.30;;
68074;SDS011;54864;52.002;5.468;2023-04-08T00:28:41;54.88;;;23.17;;
68074;SDS011;54864;52.002;5.468;2023-04-08T00:29:42;63.63;;;24.20;;
68074;SDS011;54864;52.002;5.468;2023-04-08T00:30:45;42.63;;;22.02;;
68074;SDS011;54864;52.002;5.468;2023-04-08T00:31:46;66.85;;;23.80;;
68074;SDS011;54864;52.002;5.468;2023-04-08T00:32:52;65.00;;;22.75;;
68074;SDS011;54864;52.002;5.468;2023-04-08T00:33:52;59.25;;;23.08;;
68074;SDS011;54864;52.002;5.468;2023-04-08T00:34:55;53.33;;;21.23;;
68074;SDS011;54864;52.002;5.468;2023-04-08T00:35:55;44.17;;;21.35;;
68074;SDS011;54864;52.002;5.468;2023-04-08T00:36:58;48.08;;;21.58;;
68074;SDS011;54864;52.002;5.468;2023-04-08T00:37:58;46.92;;;20.17;;
68074;SDS011;54864;52.002;5.468;2023-04-08T00:39:00;40.58;;;20.63;;
68074;SDS011;54864;52.002;5.468;2023-04-08T00:40:03;35.78;;;20.25;;
68074;SDS011;54864;52.002;5.468;2023-04-08T00:41:06;40.10;;;19.67;;
68074;SDS011;54864;52.002;5.468;2023-04-08T00:42:06;33.03;;;19.50;;
68074;SDS011;54864;52.002;5.468;2023-04-08T00:43:08;31.23;;;19.13;;
68074;SDS011;54864;52.002;5.468;2023-04-08T00:44:09;31.10;;;19.50;;
68074;SDS011;54864;52.002;5.468;2023-04-08T00:45:13;30.75;;;18.25;;
68074;SDS011;54864;52.002;5.468;2023-04-08T00:46:15;29.20;;;19.25;;
68074;SDS011;54864;52.002;5.468;2023-04-08T00:47:17;29.38;;;18.05;;
68074;SDS011;54864;52.002;5.468;2023-04-08T00:48:18;25.45;;;18.50;;
68074;SDS011;54864;52.002;5.468;2023-04-08T00:49:22;25.20;;;18.60;;
68074;SDS011;54864;52.002;5.468;2023-04-08T00:50:23;21.08;;;17.00;;
68074;SDS011;54864;52.002;5.468;2023-04-08T00:51:25;22.35;;;16.63;;
68074;SDS011;54864;52.002;5.468;2023-04-08T00:52:26;23.45;;;17.10;;
68074;SDS011;54864;52.002;5.468;2023-04-08T00:53:29;22.33;;;16.75;;
68074;SDS011;54864;52.002;5.468;2023-04-08T00:54:31;21.38;;;16.88;;
68074;SDS011;54864;52.002;5.468;2023-04-08T00:55:32;22.02;;;17.27;;
68074;SDS011;54864;52.002;5.468;2023-04-08T00:56:34;23.38;;;16.58;;
68074;SDS011;54864;52.002;5.468;2023-04-08T00:57:35;22.40;;;15.10;;
68074;SDS011;54864;52.002;5.468;2023-04-08T00:58:38;19.60;;;15.82;;
68074;SDS011;54864;52.002;5.468;2023-04-08T00:59:40;17.83;;;15.37;;
68074;SDS011;54864;52.002;5.468;2023-04-08T01:00:47;18.42;;;15.23;;
68074;SDS011;54864;52.002;5.468;2023-04-08T01:01:56;18.52;;;15.20;;
68074;SDS011;54864;52.002;5.468;2023-04-08T01:03:08;18.45;;;15.32;;
68074;SDS011;54864;52.002;5.468;2023-04-08T01:04:19;17.35;;;14.55;;
68074;SDS011;54864;52.002;5.468;2023-04-08T01:05:34;18.85;;;13.85;;
68074;SDS011;54864;52.002;5.468;2023-04-08T01:06:40;18.00;;;14.98;;
68074;SDS011;54864;52.002;5.468;2023-04-08T01:07:52;17.58;;;14.43;;
68074;SDS011;54864;52.002;5.468;2023-04-08T01:08:52;22.40;;;15.13;;
68074;SDS011;54864;52.002;5.468;2023-04-08T01:09:55;17.90;;;14.68;;
68074;SDS011;54864;52.002;5.468;2023-04-08T01:10:57;17.58;;;13.73;;
68074;SDS011;54864;52.002;5.468;2023-04-08T01:12:03;17.60;;;14.50;;
68074;SDS011;54864;52.002;5.468;2023-04-08T01:13:08;16.65;;;14.20;;
68074;SDS011;54864;52.002;5.468;2023-04-08T01:14:14;17.58;;;14.68;;
68074;SDS011;54864;52.002;5.468;2023-04-08T01:15:20;18.30;;;15.73;;
68074;SDS011;54864;52.002;5.468;2023-04-08T01:16:22;18.45;;;14.75;;
68074;SDS011;54864;52.002;5.468;2023-04-08T01:17:27;15.68;;;13.73;;
68074;SDS011;54864;52.002;5.468;2023-04-08T01:18:30;16.83;;;14.57;;
68074;SDS011;54864;52.002;5.468;2023-04-08T01:19:37;16.33;;;13.90;;
68074;SDS011;54864;52.002;5.468;2023-04-08T01:20:41;16.50;;;14.02;;
68074;SDS011;54864;52.002;5.468;2023-04-08T01:21:42;15.75;;;13.80;;
68074;SDS011;54864;52.002;5.468;2023-04-08T01:22:50;16.83;;;13.90;;
68074;SDS011;54864;52.002;5.468;2023-04-08T01:24:04;15.75;;;14.05;;
68074;SDS011;54864;52.002;5.468;2023-04-08T01:25:23;15.32;;;13.57;;
68074;SDS011;54864;52.002;5.468;2023-04-08T01:26:33;16.80;;;14.48;;
68074;SDS011;54864;52.002;5.468;2023-04-08T01:27:36;16.55;;;13.45;;
68074;SDS011;54864;52.002;5.468;2023-04-08T01:28:37;17.17;;;14.07;;
68074;SDS011;54864;52.002;5.468;2023-04-08T01:29:42;17.70;;;14.07;;
68074;SDS011;54864;52.002;5.468;2023-04-08T01:30:44;16.63;;;14.02;;
68074;SDS011;54864;52.002;5.468;2023-04-08T01:31:48;16.77;;;14.10;;
68074;SDS011;54864;52.002;5.468;2023-04-08T01:32:49;23.23;;;14.93;;
68074;SDS011;54864;52.002;5.468;2023-04-08T01:33:52;25.30;;;14.70;;
68074;SDS011;54864;52.002;5.468;2023-04-08T01:34:55;23.55;;;14.85;;
68074;SDS011;54864;52.002;5.468;2023-04-08T01:36:01;29.52;;;14.80;;
68074;SDS011;54864;52.002;5.468;2023-04-08T01:37:03;47.58;;;15.98;;
68074;SDS011;54864;52.002;5.468;2023-04-08T01:38:07;45.13;;;15.15;;
68074;SDS011;54864;52.002;5.468;2023-04-08T01:39:13;58.63;;;15.05;;
68074;SDS011;54864;52.002;5.468;2023-04-08T01:40:17;56.70;;;15.68;;
68074;SDS011;54864;52.002;5.468;2023-04-08T01:41:25;58.40;;;14.82;;
68074;SDS011;54864;52.002;5.468;2023-04-08T01:42:30;56.45;;;13.90;;
68074;SDS011;54864;52.002;5.468;2023-04-08T01:43:33;62.67;;;15.23;;
68074;SDS011;54864;52.002;5.468;2023-04-08T01:44:36;74.30;;;14.60;;
68074;SDS011;54864;52.002;5.468;2023-04-08T01:45:40;58.80;;;13.60;;
68074;SDS011;54864;52.002;5.468;2023-04-08T01:46:44;48.53;;;14.10;;
68074;SDS011;54864;52.002;5.468;2023-04-08T01:47:45;48.95;;;13.40;;
68074;SDS011;54864;52.002;5.468;2023-04-08T01:48:48;37.42;;;12.43;;
68074;SDS011;54864;52.002;5.468;2023-04-08T01:49:50;45.70;;;12.87;;
68074;SDS011;54864;52.002;5.468;2023-04-08T01:50:53;34.88;;;12.80;;
68074;SDS011;54864;52.002;5.468;2023-04-08T01:51:56;38.83;;;11.82;;
68074;SDS011;54864;52.002;5.468;2023-04-08T01:52:59;28.45;;;11.52;;
68074;SDS011;54864;52.002;5.468;2023-04-08T01:54:02;31.20;;;11.48;;
68074;SDS011;54864;52.002;5.468;2023-04-08T01:55:03;30.70;;;11.18;;
68074;SDS011;54864;52.002;5.468;2023-04-08T01:56:07;29.92;;;11.13;;
68074;SDS011;54864;52.002;5.468;2023-04-08T01:57:13;31.55;;;11.52;;
68074;SDS011;54864;52.002;5.468;2023-04-08T01:58:21;25.15;;;11.40;;
68074;SDS011;54864;52.002;5.468;2023-04-08T01:59:24;26.38;;;11.23;;
68074;SDS011;54864;52.002;5.468;2023-04-08T02:00:32;34.97;;;11.52;;
68074;SDS011;54864;52.002;5.468;2023-04-08T02:01:37;44.22;;;12.00;;
68074;SDS011;54864;52.002;5.468;2023-04-08T02:02:39;50.17;;;11.85;;
68074;SDS011;54864;52.002;5.468;2023-04-08T02:03:42;30.08;;;11.65;;
68074;SDS011;54864;52.002;5.468;2023-04-08T02:04:45;37.33;;;12.20;;
68074;SDS011;54864;52.002;5.468;2023-04-08T02:05:48;39.95;;;12.35;;
68074;SDS011;54864;52.002;5.468;2023-04-08T02:06:50;39.00;;;11.48;;
68074;SDS011;54864;52.002;5.468;2023-04-08T02:07:51;43.73;;;12.17;;
68074;SDS011;54864;52.002;5.468;2023-04-08T02:08:53;40.45;;;11.80;;
68074;SDS011;54864;52.002;5.468;2023-04-08T02:09:54;47.30;;;12.48;;
68074;SDS011;54864;52.002;5.468;2023-04-08T02:10:57;49.85;;;12.20;;
68074;SDS011;54864;52.002;5.468;2023-04-08T02:11:58;31.65;;;12.07;;
68074;SDS011;54864;52.002;5.468;2023-04-08T02:13:00;39.97;;;12.88;;
68074;SDS011;54864;52.002;5.468;2023-04-08T02:14:06;44.42;;;12.70;;
68074;SDS011;54864;52.002;5.468;2023-04-08T02:15:09;41.88;;;12.80;;
68074;SDS011;54864;52.002;5.468;2023-04-08T02:16:13;28.48;;;11.95;;
68074;SDS011;54864;52.002;5.468;2023-04-08T02:17:20;34.28;;;11.90;;
68074;SDS011;54864;52.002;5.468;2023-04-08T02:18:26;35.67;;;11.65;;
68074;SDS011;54864;52.002;5.468;2023-04-08T02:19:28;33.95;;;11.70;;
68074;SDS011;54864;52.002;5.468;2023-04-08T02:20:35;26.77;;;12.25;;
68074;SDS011;54864;52.002;5.468;2023-04-08T02:21:41;35.13;;;11.93;;
68074;SDS011;54864;52.002;5.468;2023-04-08T02:22:47;24.40;;;11.23;;
68074;SDS011;54864;52.002;5.468;2023-04-08T02:23:50;27.33;;;11.45;;
68074;SDS011;54864;52.002;5.468;2023-04-08T02:24:54;25.30;;;11.47;;
68074;SDS011;54864;52.002;5.468;2023-04-08T02:25:56;20.90;;;11.48;;
68074;SDS011;54864;52.002;5.468;2023-04-08T02:26:58;18.17;;;11.07;;
68074;SDS011;54864;52.002;5.468;2023-04-08T02:28:02;17.45;;;11.50;;
68074;SDS011;54864;52.002;5.468;2023-04-08T02:29:07;13.75;;;10.45;;
68074;SDS011;54864;52.002;5.468;2023-04-08T02:30:13;18.83;;;11.55;;
68074;SDS011;54864;52.002;5.468;2023-04-08T02:31:16;12.00;;;10.35;;
68074;SDS011;54864;52.002;5.468;2023-04-08T02:32:18;12.38;;;10.48;;
68074;SDS011;54864;52.002;5.468;2023-04-08T02:33:20;14.27;;;10.55;;
68074;SDS011;54864;52.002;5.468;2023-04-08T02:34:25;13.23;;;10.85;;
68074;SDS011;54864;52.002;5.468;2023-04-08T02:35:27;17.60;;;11.07;;
68074;SDS011;54864;52.002;5.468;2023-04-08T02:36:33;12.05;;;10.48;;
68074;SDS011;54864;52.002;5.468;2023-04-08T02:37:34;15.15;;;11.05;;
68074;SDS011;54864;52.002;5.468;2023-04-08T02:38:36;12.55;;;10.65;;
68074;SDS011;54864;52.002;5.468;2023-04-08T02:39:37;14.13;;;10.23;;
68074;SDS011;54864;52.002;5.468;2023-04-08T02:40:39;15.13;;;10.57;;
68074;SDS011;54864;52.002;5.468;2023-04-08T02:41:42;16.98;;;10.95;;
68074;SDS011;54864;52.002;5.468;2023-04-08T02:42:44;15.68;;;10.73;;
68074;SDS011;54864;52.002;5.468;2023-04-08T02:43:45;12.20;;;10.75;;
68074;SDS011;54864;52.002;5.468;2023-04-08T02:44:49;14.35;;;11.60;;
68074;SDS011;54864;52.002;5.468;2023-04-08T02:45:50;15.00;;;10.88;;
68074;SDS011;54864;52.002;5.468;2023-04-08T02:46:52;17.02;;;12.13;;
68074;SDS011;54864;52.002;5.468;2023-04-08T02:47:52;16.63;;;11.67;;
68074;SDS011;54864;52.002;5.468;2023-04-08T02:48:54;18.17;;;11.65;;
68074;SDS011;54864;52.002;5.468;2023-04-08T02:49:55;15.13;;;11.23;;
68074;SDS011;54864;52.002;5.468;2023-04-08T02:50:57;13.57;;;11.85;;
68074;SDS011;54864;52.002;5.468;2023-04-08T02:51:58;18.33;;;11.90;;
68074;SDS011;54864;52.002;5.468;2023-04-08T02:52:59;15.88;;;11.30;;
68074;SDS011;54864;52.002;5.468;2023-04-08T02:54:00;17.33;;;12.63;;
68074;SDS011;54864;52.002;5.468;2023-04-08T02:55:02;20.88;;;12.50;;
68074;SDS011;54864;52.002;5.468;2023-04-08T02:56:08;15.65;;;12.27;;
68074;SDS011;54864;52.002;5.468;2023-04-08T02:57:10;21.13;;;11.80;;
68074;SDS011;54864;52.002;5.468;2023-04-08T02:58:12;19.73;;;12.70;;
68074;SDS011;54864;52.002;5.468;2023-04-08T02:59:16;22.23;;;12.63;;
68074;SDS011;54864;52.002;5.468;2023-04-08T03:00:18;23.60;;;12.70;;
68074;SDS011;54864;52.002;5.468;2023-04-08T03:01:22;29.37;;;13.47;;
68074;SDS011;54864;52.002;5.468;2023-04-08T03:02:23;26.92;;;12.85;;
68074;SDS011;54864;52.002;5.468;2023-04-08T03:03:25;36.28;;;13.90;;
68074;SDS011;54864;52.002;5.468;2023-04-08T03:04:28;30.05;;;12.85;;
68074;SDS011;54864;52.002;5.468;2023-04-08T03:05:32;25.70;;;13.15;;
68074;SDS011;54864;52.002;5.468;2023-04-08T03:06:34;30.15;;;13.25;;
68074;SDS011;54864;52.002;5.468;2023-04-08T03:07:34;30.50;;;14.23;;
68074;SDS011;54864;52.002;5.468;2023-04-08T03:08:36;42.38;;;13.45;;
68074;SDS011;54864;52.002;5.468;2023-04-08T03:09:37;39.03;;;14.55;;
68074;SDS011;54864;52.002;5.468;2023-04-08T03:10:39;46.60;;;14.30;;
68074;SDS011;54864;52.002;5.468;2023-04-08T03:11:42;34.28;;;13.98;;
68074;SDS011;54864;52.002;5.468;2023-04-08T03:12:44;34.00;;;13.70;;
68074;SDS011;54864;52.002;5.468;2023-04-08T03:13:46;30.27;;;14.15;;
68074;SDS011;54864;52.002;5.468;2023-04-08T03:14:46;36.70;;;14.48;;
68074;SDS011;54864;52.002;5.468;2023-04-08T03:15:49;32.08;;;14.20;;
68074;SDS011;54864;52.002;5.468;2023-04-08T03:16:50;46.25;;;14.43;;
68074;SDS011;54864;52.002;5.468;2023-04-08T03:17:52;47.17;;;13.32;;
68074;SDS011;54864;52.002;5.468;2023-04-08T03:18:53;52.33;;;14.63;;
68074;SDS011;54864;52.002;5.468;2023-04-08T03:19:54;47.70;;;14.43;;
68074;SDS011;54864;52.002;5.468;2023-04-08T03:20:55;26.87;;;14.90;;
68074;SDS011;54864;52.002;5.468;2023-04-08T03:21:57;33.30;;;15.07;;
68074;SDS011;54864;52.002;5.468;2023-04-08T03:22:59;43.40;;;15.00;;
68074;SDS011;54864;52.002;5.468;2023-04-08T03:24:00;36.47;;;14.00;;
68074;SDS011;54864;52.002;5.468;2023-04-08T03:25:01;39.20;;;14.63;;
68074;SDS011;54864;52.002;5.468;2023-04-08T03:26:03;36.22;;;14.55;;
68074;SDS011;54864;52.002;5.468;2023-04-08T03:27:04;41.53;;;15.32;;
68074;SDS011;54864;52.002;5.468;2023-04-08T03:28:07;41.05;;;14.65;;
68074;SDS011;54864;52.002;5.468;2023-04-08T03:29:08;39.67;;;14.60;;
68074;SDS011;54864;52.002;5.468;2023-04-08T03:30:10;35.25;;;14.23;;
68074;SDS011;54864;52.002;5.468;2023-04-08T03:31:12;37.00;;;14.90;;
68074;SDS011;54864;52.002;5.468;2023-04-08T03:32:14;71.55;;;15.68;;
68074;SDS011;54864;52.002;5.468;2023-04-08T03:33:15;52.53;;;14.05;;
68074;SDS011;54864;52.002;5.468;2023-04-08T03:34:19;52.03;;;15.50;;
68074;SDS011;54864;52.002;5.468;2023-04-08T03:35:20;34.88;;;14.18;;
68074;SDS011;54864;52.002;5.468;2023-04-08T03:36:22;33.30;;;14.35;;
68074;SDS011;54864;52.002;5.468;2023-04-08T03:37:24;32.90;;;14.48;;
68074;SDS011;54864;52.002;5.468;2023-04-08T03:38:24;36.87;;;14.07;;
68074;SDS011;54864;52.002;5.468;2023-04-08T03:39:26;33.60;;;14.00;;
68074;SDS011;54864;52.002;5.468;2023-04-08T03:40:27;23.60;;;13.63;;
68074;SDS011;54864;52.002;5.468;2023-04-08T03:41:32;40.33;;;15.15;;
68074;SDS011;54864;52.002;5.468;2023-04-08T03:42:33;56.50;;;14.32;;
68074;SDS011;54864;52.002;5.468;2023-04-08T03:43:35;62.50;;;14.48;;
68074;SDS011;54864;52.002;5.468;2023-04-08T03:44:36;52.25;;;14.32;;
68074;SDS011;54864;52.002;5.468;2023-04-08T03:45:38;48.17;;;15.68;;
68074;SDS011;54864;52.002;5.468;2023-04-08T03:46:40;47.28;;;14.85;;
68074;SDS011;54864;52.002;5.468;2023-04-08T03:47:45;50.35;;;14.90;;
68074;SDS011;54864;52.002;5.468;2023-04-08T03:48:45;63.70;;;14.55;;
68074;SDS011;54864;52.002;5.468;2023-04-08T03:49:47;44.03;;;13.70;;
68074;SDS011;54864;52.002;5.468;2023-04-08T03:50:48;37.63;;;14.23;;
68074;SDS011;54864;52.002;5.468;2023-04-08T03:51:50;32.65;;;13.82;;
68074;SDS011;54864;52.002;5.468;2023-04-08T03:52:50;62.85;;;15.20;;
68074;SDS011;54864;52.002;5.468;2023-04-08T03:53:52;46.00;;;14.52;;
68074;SDS011;54864;52.002;5.468;2023-04-08T03:54:53;34.22;;;13.57;;
68074;SDS011;54864;52.002;5.468;2023-04-08T03:55:55;51.05;;;14.77;;
68074;SDS011;54864;52.002;5.468;2023-04-08T03:56:56;54.40;;;14.18;;
68074;SDS011;54864;52.002;5.468;2023-04-08T03:57:59;38.97;;;14.10;;
68074;SDS011;54864;52.002;5.468;2023-04-08T03:59:00;44.10;;;14.25;;
68074;SDS011;54864;52.002;5.468;2023-04-08T04:00:02;47.85;;;15.30;;
68074;SDS011;54864;52.002;5.468;2023-04-08T04:01:04;71.33;;;15.23;;
68074;SDS011;54864;52.002;5.468;2023-04-08T04:02:14;71.73;;;15.90;;
68074;SDS011;54864;52.002;5.468;2023-04-08T04:03:15;54.30;;;14.60;;
68074;SDS011;54864;52.002;5.468;2023-04-08T04:04:17;77.13;;;15.32;;
68074;SDS011;54864;52.002;5.468;2023-04-08T04:05:18;53.80;;;14.40;;
68074;SDS011;54864;52.002;5.468;2023-04-08T04:06:22;47.85;;;14.70;;
68074;SDS011;54864;52.002;5.468;2023-04-08T04:07:23;65.30;;;14.93;;
68074;SDS011;54864;52.002;5.468;2023-04-08T04:08:25;84.53;;;15.07;;
68074;SDS011;54864;52.002;5.468;2023-04-08T04:09:26;76.77;;;15.27;;
68074;SDS011;54864;52.002;5.468;2023-04-08T04:10:27;70.45;;;15.57;;
68074;SDS011;54864;52.002;5.468;2023-04-08T04:11:28;71.30;;;15.35;;
68074;SDS011;54864;52.002;5.468;2023-04-08T04:12:33;39.97;;;15.18;;
68074;SDS011;54864;52.002;5.468;2023-04-08T04:13:33;70.72;;;14.88;;
68074;SDS011;54864;52.002;5.468;2023-04-08T04:14:35;59.83;;;14.45;;
68074;SDS011;54864;52.002;5.468;2023-04-08T04:15:37;79.83;;;15.50;;
68074;SDS011;54864;52.002;5.468;2023-04-08T04:16:39;72.15;;;16.15;;
68074;SDS011;54864;52.002;5.468;2023-04-08T04:17:41;69.90;;;15.93;;
68074;SDS011;54864;52.002;5.468;2023-04-08T04:18:43;41.40;;;14.88;;
68074;SDS011;54864;52.002;5.468;2023-04-08T04:19:49;43.88;;;14.43;;
68074;SDS011;54864;52.002;5.468;2023-04-08T04:20:52;45.13;;;14.52;;
68074;SDS011;54864;52.002;5.468;2023-04-08T04:21:53;55.92;;;14.88;;
68074;SDS011;54864;52.002;5.468;2023-04-08T04:22:55;63.95;;;14.85;;
68074;SDS011;54864;52.002;5.468;2023-04-08T04:23:56;54.40;;;14.27;;
68074;SDS011;54864;52.002;5.468;2023-04-08T04:24:58;49.92;;;14.95;;
68074;SDS011;54864;52.002;5.468;2023-04-08T04:26:06;74.40;;;14.52;;
68074;SDS011;54864;52.002;5.468;2023-04-08T04:27:08;64.30;;;15.20;;
68074;SDS011;54864;52.002;5.468;2023-04-08T04:28:09;47.87;;;13.90;;
68074;SDS011;54864;52.002;5.468;2023-04-08T04:29:11;76.72;;;16.20;;
68074;SDS011;54864;52.002;5.468;2023-04-08T04:30:12;84.57;;;16.30;;
68074;SDS011;54864;52.002;5.468;2023-04-08T04:31:17;69.22;;;15.15;;
68074;SDS011;54864;52.002;5.468;2023-04-08T04:32:19;65.97;;;15.55;;
68074;SDS011;54864;52.002;5.468;2023-04-08T04:33:23;66.63;;;16.83;;
68074;SDS011;54864;52.002;5.468;2023-04-08T04:34:24;94.85;;;19.63;;
68074;SDS011;54864;52.002;5.468;2023-04-08T04:35:28;83.10;;;18.48;;
68074;SDS011;54864;52.002;5.468;2023-04-08T04:36:31;67.00;;;18.83;;
68074;SDS011;54864;52.002;5.468;2023-04-08T04:37:33;60.67;;;18.58;;
68074;SDS011;54864;52.002;5.468;2023-04-08T04:38:34;76.78;;;18.67;;
68074;SDS011;54864;52.002;5.468;2023-04-08T04:39:38;74.97;;;18.38;;
68074;SDS011;54864;52.002;5.468;2023-04-08T04:40:39;72.00;;;18.85;;
68074;SDS011;54864;52.002;5.468;2023-04-08T04:41:41;55.42;;;17.95;;
68074;SDS011;54864;52.002;5.468;2023-04-08T04:42:43;41.25;;;17.83;;
68074;SDS011;54864;52.002;5.468;2023-04-08T04:43:45;42.35;;;18.20;;
68074;SDS011;54864;52.002;5.468;2023-04-08T04:44:46;41.58;;;17.98;;
68074;SDS011;54864;52.002;5.468;2023-04-08T04:45:48;40.22;;;17.65;;
68074;SDS011;54864;52.002;5.468;2023-04-08T04:46:49;38.13;;;19.30;;
68074;SDS011;54864;52.002;5.468;2023-04-08T04:47:51;30.52;;;16.95;;
68074;SDS011;54864;52.002;5.468;2023-04-08T04:48:53;31.48;;;16.83;;
68074;SDS011;54864;52.002;5.468;2023-04-08T04:49:55;34.70;;;17.63;;
68074;SDS011;54864;52.002;5.468;2023-04-08T04:50:56;38.07;;;17.87;;
68074;SDS011;54864;52.002;5.468;2023-04-08T04:51:59;38.78;;;17.15;;
68074;SDS011;54864;52.002;5.468;2023-04-08T04:52:59;38.50;;;17.65;;
68074;SDS011;54864;52.002;5.468;2023-04-08T04:54:01;44.08;;;18.48;;
68074;SDS011;54864;52.002;5.468;2023-04-08T04:55:02;33.05;;;18.17;;
68074;SDS011;54864;52.002;5.468;2023-04-08T04:56:04;39.17;;;18.52;;
68074;SDS011;54864;52.002;5.468;2023-04-08T04:57:09;36.10;;;18.60;;
68074;SDS011;54864;52.002;5.468;2023-04-08T04:58:10;35.25;;;18.17;;
68074;SDS011;54864;52.002;5.468;2023-04-08T04:59:11;31.85;;;17.70;;
68074;SDS011;54864;52.002;5.468;2023-04-08T05:00:13;34.25;;;18.80;;
68074;SDS011;54864;52.002;5.468;2023-04-08T05:01:15;31.67;;;18.48;;
68074;SDS011;54864;52.002;5.468;2023-04-08T05:02:17;41.30;;;19.80;;
68074;SDS011;54864;52.002;5.468;2023-04-08T05:03:17;28.08;;;19.48;;
68074;SDS011;54864;52.002;5.468;2023-04-08T05:04:23;35.95;;;18.83;;
68074;SDS011;54864;52.002;5.468;2023-04-08T05:05:24;26.73;;;18.42;;
68074;SDS011;54864;52.002;5.468;2023-04-08T05:06:25;47.85;;;20.25;;
68074;SDS011;54864;52.002;5.468;2023-04-08T05:07:26;42.43;;;19.57;;
68074;SDS011;54864;52.002;5.468;2023-04-08T05:08:28;39.00;;;20.33;;
68074;SDS011;54864;52.002;5.468;2023-04-08T05:09:32;30.25;;;19.55;;
68074;SDS011;54864;52.002;5.468;2023-04-08T05:10:33;32.30;;;20.23;;
68074;SDS011;54864;52.002;5.468;2023-04-08T05:11:34;33.27;;;20.23;;
68074;SDS011;54864;52.002;5.468;2023-04-08T05:12:38;27.35;;;19.88;;
68074;SDS011;54864;52.002;5.468;2023-04-08T05:13:39;40.40;;;20.58;;
68074;SDS011;54864;52.002;5.468;2023-04-08T05:14:41;32.45;;;19.58;;
68074;SDS011;54864;52.002;5.468;2023-04-08T05:15:45;38.03;;;18.85;;
68074;SDS011;54864;52.002;5.468;2023-04-08T05:16:47;38.28;;;20.23;;
68074;SDS011;54864;52.002;5.468;2023-04-08T05:17:48;33.87;;;19.57;;
68074;SDS011;54864;52.002;5.468;2023-04-08T05:18:49;32.28;;;19.77;;
68074;SDS011;54864;52.002;5.468;2023-04-08T05:19:51;31.60;;;19.40;;
68074;SDS011;54864;52.002;5.468;2023-04-08T05:20:53;38.92;;;20.83;;
68074;SDS011;54864;52.002;5.468;2023-04-08T05:21:54;42.55;;;20.58;;
68074;SDS011;54864;52.002;5.468;2023-04-08T05:22:56;35.70;;;19.30;;
68074;SDS011;54864;52.002;5.468;2023-04-08T05:23:57;38.95;;;20.10;;
68074;SDS011;54864;52.002;5.468;2023-04-08T05:24:59;34.08;;;19.88;;
68074;SDS011;54864;52.002;5.468;2023-04-08T05:26:00;30.42;;;19.52;;
68074;SDS011;54864;52.002;5.468;2023-04-08T05:27:02;30.88;;;20.00;;
68074;SDS011;54864;52.002;5.468;2023-04-08T05:28:03;31.88;;;20.13;;
68074;SDS011;54864;52.002;5.468;2023-04-08T05:29:05;27.10;;;19.15;;
68074;SDS011;54864;52.002;5.468;2023-04-08T05:30:06;47.65;;;20.17;;
68074;SDS011;54864;52.002;5.468;2023-04-08T05:31:09;38.00;;;20.83;;
68074;SDS011;54864;52.002;5.468;2023-04-08T05:32:13;30.48;;;20.38;;
68074;SDS011;54864;52.002;5.468;2023-04-08T05:33:16;31.80;;;19.90;;
68074;SDS011;54864;52.002;5.468;2023-04-08T05:34:17;29.55;;;20.52;;
68074;SDS011;54864;52.002;5.468;2023-04-08T05:35:23;34.83;;;20.15;;
68074;SDS011;54864;52.002;5.468;2023-04-08T05:36:27;38.28;;;21.63;;
68074;SDS011;54864;52.002;5.468;2023-04-08T05:37:28;34.42;;;20.67;;
68074;SDS011;54864;52.002;5.468;2023-04-08T05:38:33;26.85;;;19.70;;
68074;SDS011;54864;52.002;5.468;2023-04-08T05:39:34;27.38;;;21.13;;
68074;SDS011;54864;52.002;5.468;2023-04-08T05:40:36;26.83;;;20.33;;
68074;SDS011;54864;52.002;5.468;2023-04-08T05:41:37;26.98;;;20.77;;
68074;SDS011;54864;52.002;5.468;2023-04-08T05:42:41;27.80;;;20.42;;
68074;SDS011;54864;52.002;5.468;2023-04-08T05:43:41;27.33;;;20.17;;
68074;SDS011;54864;52.002;5.468;2023-04-08T05:44:44;25.48;;;19.60;;
68074;SDS011;54864;52.002;5.468;2023-04-08T05:45:45;28.08;;;20.30;;
68074;SDS011;54864;52.002;5.468;2023-04-08T05:46:46;26.92;;;20.15;;
68074;SDS011;54864;52.002;5.468;2023-04-08T05:47:47;28.15;;;19.50;;
68074;SDS011;54864;52.002;5.468;2023-04-08T05:48:49;27.27;;;19.23;;
68074;SDS011;54864;52.002;5.468;2023-04-08T05:49:50;27.92;;;19.95;;
68074;SDS011;54864;52.002;5.468;2023-04-08T05:50:56;30.73;;;20.42;;
68074;SDS011;54864;52.002;5.468;2023-04-08T05:51:57;30.63;;;19.75;;
68074;SDS011;54864;52.002;5.468;2023-04-08T05:52:58;28.92;;;20.00;;
68074;SDS011;54864;52.002;5.468;2023-04-08T05:53:59;28.73;;;21.10;;
68074;SDS011;54864;52.002;5.468;2023-04-08T05:55:01;25.90;;;19.93;;
68074;SDS011;54864;52.002;5.468;2023-04-08T05:56:03;27.30;;;19.92;;
68074;SDS011;54864;52.002;5.468;2023-04-08T05:57:07;25.45;;;19.85;;
68074;SDS011;54864;52.002;5.468;2023-04-08T05:58:09;25.55;;;19.33;;
68074;SDS011;54864;52.002;5.468;2023-04-08T05:59:12;29.55;;;20.15;;
68074;SDS011;54864;52.002;5.468;2023-04-08T06:00:15;34.88;;;19.90;;
68074;SDS011;54864;52.002;5.468;2023-04-08T06:01:16;31.77;;;18.90;;
68074;SDS011;54864;52.002;5.468;2023-04-08T06:02:18;30.08;;;19.60;;
68074;SDS011;54864;52.002;5.468;2023-04-08T06:03:19;30.43;;;19.30;;
68074;SDS011;54864;52.002;5.468;2023-04-08T06:04:20;26.73;;;19.33;;
68074;SDS011;54864;52.002;5.468;2023-04-08T06:05:21;38.35;;;19.55;;
68074;SDS011;54864;52.002;5.468;2023-04-08T06:06:24;42.40;;;19.90;;